sensor_id;sensor_type;location;lat;lon;timestamp;P1;durP1;ratioP1;P2;durP2;ratioP2
39788;SDS011;25478;42.626;23.320;2023-04-01T00:00:56;7.17;;;2.57;;
39788;SDS011;25478;42.626;23.320;2023-04-01T00:03:23;7.27;;;3.50;;
39788;SDS011;25478;42.626;23.320;2023-04-01T00:05:51;12.33;;;4.17;;
39788;SDS011;25478;42.626;23.320;2023-04-01T00:08:17;9.23;;;3.57;;
39788;SDS011;25478;42.626;23.320;2023-04-01T00:10:44;10.27;;;3.43;;
39788;SDS011;25478;42.626;23.320;2023-04-01T00:13:10;9.37;;;4.07;;
39788;SDS011;25478;42.626;23.320;2023-04-01T00:15:35;10.90;;;3.83;;
39788;SDS011;25478;42.626;23.320;2023-04-01T00:18:01;10.73;;;4.70;;
39788;SDS011;25478;42.626;23.320;2023-04-01T00:20:27;9.73;;;4.00;;
39788;SDS011;25478;42.626;23.320;2023-04-01T00:22:53;13.27;;;6.70;;
39788;SDS011;25478;42.626;23.320;2023-04-01T00:25:18;15.60;;;6.77;;
39788;SDS011;25478;42.626;23.320;2023-04-01T00:27:44;11.67;;;6.07;;
39788;SDS011;25478;42.626;23.320;2023-04-01T00:30:10;15.70;;;7.20;;
39788;SDS011;25478;42.626;23.320;2023-04-01T00:32:36;11.80;;;6.00;;
39788;SDS011;25478;42.626;23.320;2023-04-01T00:35:02;11.80;;;6.33;;
39788;SDS011;25478;42.626;23.320;2023-04-01T00:37:29;12.77;;;6.47;;
39788;SDS011;25478;42.626;23.320;2023-04-01T00:39:54;13.83;;;6.30;;
39788;SDS011;25478;42.626;23.320;2023-04-01T00:42:20;15.93;;;6.23;;
39788;SDS011;25478;42.626;23.320;2023-04-01T00:44:53;13.97;;;6.43;;
39788;SDS011;25478;42.626;23.320;2023-04-01T00:47:20;12.50;;;5.80;;
39788;SDS011;25478;42.626;23.320;2023-04-01T00:49:48;17.37;;;6.43;;
39788;SDS011;25478;42.626;23.320;2023-04-01T00:52:18;13.90;;;6.70;;
39788;SDS011;25478;42.626;23.320;2023-04-01T00:54:49;11.70;;;5.87;;
39788;SDS011;25478;42.626;23.320;2023-04-01T00:57:19;10.80;;;5.23;;
39788;SDS011;25478;42.626;23.320;2023-04-01T00:59:49;10.80;;;5.57;;
39788;SDS011;25478;42.626;23.320;2023-04-01T01:02:17;9.87;;;5.47;;
39788;SDS011;25478;42.626;23.320;2023-04-01T01:04:45;11.70;;;5.20;;
39788;SDS011;25478;42.626;23.320;2023-04-01T01:13:21;9.47;;;4.63;;
39788;SDS011;25478;42.626;23.320;2023-04-01T01:31:37;10.37;;;4.67;;
39788;SDS011;25478;42.626;23.320;2023-04-01T01:36:59;11.77;;;4.80;;
39788;SDS011;25478;42.626;23.320;2023-04-01T01:39:30;13.77;;;5.13;;
39788;SDS011;25478;42.626;23.320;2023-04-01T01:42:00;12.17;;;4.37;;
39788;SDS011;25478;42.626;23.320;2023-04-01T01:44:30;12.03;;;4.20;;
39788;SDS011;25478;42.626;23.320;2023-04-01T01:46:57;9.73;;;4.20;;
39788;SDS011;25478;42.626;23.320;2023-04-01T01:49:27;9.83;;;4.17;;
39788;SDS011;25478;42.626;23.320;2023-04-01T01:51:55;8.00;;;4.10;;
39788;SDS011;25478;42.626;23.320;2023-04-01T01:54:22;8.43;;;4.00;;
39788;SDS011;25478;42.626;23.320;2023-04-01T01:56:49;8.67;;;4.07;;
39788;SDS011;25478;42.626;23.320;2023-04-01T01:59:20;9.57;;;4.00;;
39788;SDS011;25478;42.626;23.320;2023-04-01T02:01:49;10.10;;;3.60;;
39788;SDS011;25478;42.626;23.320;2023-04-01T02:04:16;7.57;;;3.27;;
39788;SDS011;25478;42.626;23.320;2023-04-01T02:06:46;9.57;;;3.67;;
39788;SDS011;25478;42.626;23.320;2023-04-01T02:09:18;7.38;;;3.35;;
39788;SDS011;25478;42.626;23.320;2023-04-01T02:11:52;8.73;;;4.00;;
39788;SDS011;25478;42.626;23.320;2023-04-01T02:14:28;6.53;;;3.70;;
39788;SDS011;25478;42.626;23.320;2023-04-01T02:17:07;6.50;;;3.83;;
39788;SDS011;25478;42.626;23.320;2023-04-01T02:19:41;8.37;;;3.90;;
39788;SDS011;25478;42.626;23.320;2023-04-01T02:22:13;10.13;;;3.97;;
39788;SDS011;25478;42.626;23.320;2023-04-01T02:24:43;9.77;;;4.20;;
39788;SDS011;25478;42.626;23.320;2023-04-01T02:27:10;11.07;;;4.23;;
39788;SDS011;25478;42.626;23.320;2023-04-01T02:29:36;11.23;;;4.03;;
39788;SDS011;25478;42.626;23.320;2023-04-01T02:32:05;7.93;;;3.63;;
39788;SDS011;25478;42.626;23.320;2023-04-01T02:34:32;10.20;;;4.07;;
39788;SDS011;25478;42.626;23.320;2023-04-01T02:36:58;8.17;;;4.37;;
39788;SDS011;25478;42.626;23.320;2023-04-01T02:39:24;8.87;;;3.70;;
39788;SDS011;25478;42.626;23.320;2023-04-01T02:41:51;8.37;;;3.80;;
39788;SDS011;25478;42.626;23.320;2023-04-01T02:44:17;9.60;;;4.30;;
39788;SDS011;25478;42.626;23.320;2023-04-01T02:46:43;9.80;;;4.10;;
39788;SDS011;25478;42.626;23.320;2023-04-01T02:49:08;9.33;;;4.07;;
39788;SDS011;25478;42.626;23.320;2023-04-01T02:51:34;9.30;;;4.67;;
39788;SDS011;25478;42.626;23.320;2023-04-01T02:54:00;9.87;;;4.03;;
39788;SDS011;25478;42.626;23.320;2023-04-01T02:56:26;10.60;;;4.67;;
39788;SDS011;25478;42.626;23.320;2023-04-01T02:58:52;11.53;;;4.90;;
39788;SDS011;25478;42.626;23.320;2023-04-01T03:01:19;8.90;;;4.47;;
39788;SDS011;25478;42.626;23.320;2023-04-01T03:03:44;8.93;;;4.50;;
39788;SDS011;25478;42.626;23.320;2023-04-01T03:06:11;11.00;;;4.33;;
39788;SDS011;25478;42.626;23.320;2023-04-01T03:08:38;9.53;;;4.17;;
39788;SDS011;25478;42.626;23.320;2023-04-01T03:11:05;8.03;;;4.20;;
39788;SDS011;25478;42.626;23.320;2023-04-01T03:13:33;11.73;;;4.40;;
39788;SDS011;25478;42.626;23.320;2023-04-01T03:16:00;13.30;;;4.47;;
39788;SDS011;25478;42.626;23.320;2023-04-01T03:18:25;10.33;;;4.60;;
39788;SDS011;25478;42.626;23.320;2023-04-01T03:20:51;10.50;;;4.17;;
39788;SDS011;25478;42.626;23.320;2023-04-01T03:23:18;8.50;;;4.30;;
39788;SDS011;25478;42.626;23.320;2023-04-01T03:25:46;12.10;;;3.97;;
39788;SDS011;25478;42.626;23.320;2023-04-01T03:28:13;8.70;;;3.20;;
39788;SDS011;25478;42.626;23.320;2023-04-01T03:30:39;7.83;;;3.50;;
39788;SDS011;25478;42.626;23.320;2023-04-01T03:33:05;7.10;;;3.63;;
39788;SDS011;25478;42.626;23.320;2023-04-01T03:35:31;7.70;;;3.40;;
39788;SDS011;25478;42.626;23.320;2023-04-01T03:37:56;8.40;;;3.90;;
39788;SDS011;25478;42.626;23.320;2023-04-01T03:40:22;11.67;;;4.67;;
39788;SDS011;25478;42.626;23.320;2023-04-01T03:42:48;10.20;;;4.60;;
39788;SDS011;25478;42.626;23.320;2023-04-01T03:45:14;11.63;;;5.50;;
39788;SDS011;25478;42.626;23.320;2023-04-01T03:47:40;11.73;;;5.87;;
39788;SDS011;25478;42.626;23.320;2023-04-01T03:50:06;9.97;;;5.00;;
39788;SDS011;25478;42.626;23.320;2023-04-01T03:52:33;12.10;;;5.03;;
39788;SDS011;25478;42.626;23.320;2023-04-01T03:54:59;9.47;;;4.67;;
39788;SDS011;25478;42.626;23.320;2023-04-01T03:57:25;11.97;;;4.60;;
39788;SDS011;25478;42.626;23.320;2023-04-01T03:59:52;10.30;;;4.03;;
39788;SDS011;25478;42.626;23.320;2023-04-01T04:02:18;10.93;;;3.43;;
39788;SDS011;25478;42.626;23.320;2023-04-01T04:04:43;7.23;;;3.30;;
39788;SDS011;25478;42.626;23.320;2023-04-01T04:07:09;8.10;;;3.17;;
39788;SDS011;25478;42.626;23.320;2023-04-01T04:09:57;7.53;;;2.53;;
39788;SDS011;25478;42.626;23.320;2023-04-01T04:12:23;5.73;;;2.27;;
39788;SDS011;25478;42.626;23.320;2023-04-01T04:14:48;6.37;;;2.40;;
39788;SDS011;25478;42.626;23.320;2023-04-01T04:17:14;6.97;;;2.17;;
39788;SDS011;25478;42.626;23.320;2023-04-01T04:19:42;7.83;;;2.43;;
39788;SDS011;25478;42.626;23.320;2023-04-01T04:22:08;8.50;;;3.07;;
39788;SDS011;25478;42.626;23.320;2023-04-01T04:24:34;5.77;;;2.23;;
39788;SDS011;25478;42.626;23.320;2023-04-01T04:27:06;6.63;;;2.20;;
39788;SDS011;25478;42.626;23.320;2023-04-01T04:29:33;6.07;;;1.90;;
39788;SDS011;25478;42.626;23.320;2023-04-01T04:31:59;6.37;;;3.20;;
39788;SDS011;25478;42.626;23.320;2023-04-01T04:34:25;9.90;;;3.60;;
39788;SDS011;25478;42.626;23.320;2023-04-01T04:36:51;7.13;;;3.40;;
39788;SDS011;25478;42.626;23.320;2023-04-01T04:39:17;8.50;;;4.10;;
39788;SDS011;25478;42.626;23.320;2023-04-01T04:41:43;11.17;;;4.17;;
39788;SDS011;25478;42.626;23.320;2023-04-01T04:44:08;10.90;;;4.20;;
39788;SDS011;25478;42.626;23.320;2023-04-01T04:46:34;12.00;;;3.87;;
39788;SDS011;25478;42.626;23.320;2023-04-01T04:49:10;7.90;;;4.10;;
39788;SDS011;25478;42.626;23.320;2023-04-01T04:51:35;6.50;;;4.07;;
39788;SDS011;25478;42.626;23.320;2023-04-01T04:54:05;7.47;;;3.80;;
39788;SDS011;25478;42.626;23.320;2023-04-01T04:57:06;9.70;;;3.85;;
39788;SDS011;25478;42.626;23.320;2023-04-01T04:59:38;11.17;;;4.60;;
39788;SDS011;25478;42.626;23.320;2023-04-01T05:02:22;7.15;;;3.85;;
39788;SDS011;25478;42.626;23.320;2023-04-01T05:04:47;10.13;;;4.30;;
39788;SDS011;25478;42.626;23.320;2023-04-01T05:07:13;10.40;;;5.33;;
39788;SDS011;25478;42.626;23.320;2023-04-01T05:09:39;11.17;;;4.77;;
39788;SDS011;25478;42.626;23.320;2023-04-01T05:12:06;15.00;;;6.03;;
39788;SDS011;25478;42.626;23.320;2023-04-01T05:14:50;16.60;;;7.75;;
39788;SDS011;25478;42.626;23.320;2023-04-01T05:17:16;16.10;;;7.97;;
39788;SDS011;25478;42.626;23.320;2023-04-01T05:19:41;18.03;;;8.17;;
39788;SDS011;25478;42.626;23.320;2023-04-01T05:22:07;15.33;;;7.90;;
39788;SDS011;25478;42.626;23.320;2023-04-01T05:24:34;13.37;;;6.93;;
39788;SDS011;25478;42.626;23.320;2023-04-01T05:27:00;10.33;;;5.67;;
39788;SDS011;25478;42.626;23.320;2023-04-01T05:29:27;12.07;;;4.77;;
39788;SDS011;25478;42.626;23.320;2023-04-01T05:32:01;13.87;;;5.50;;
39788;SDS011;25478;42.626;23.320;2023-04-01T05:34:27;11.57;;;5.63;;
39788;SDS011;25478;42.626;23.320;2023-04-01T05:36:52;14.00;;;6.10;;
39788;SDS011;25478;42.626;23.320;2023-04-01T05:39:18;13.03;;;6.50;;
39788;SDS011;25478;42.626;23.320;2023-04-01T05:41:44;16.10;;;6.50;;
39788;SDS011;25478;42.626;23.320;2023-04-01T05:44:10;11.33;;;5.30;;
39788;SDS011;25478;42.626;23.320;2023-04-01T05:46:40;12.20;;;5.97;;
39788;SDS011;25478;42.626;23.320;2023-04-01T05:49:13;12.70;;;6.63;;
39788;SDS011;25478;42.626;23.320;2023-04-01T05:51:39;12.83;;;6.67;;
39788;SDS011;25478;42.626;23.320;2023-04-01T05:54:05;9.13;;;5.50;;
39788;SDS011;25478;42.626;23.320;2023-04-01T05:56:31;9.93;;;5.47;;
39788;SDS011;25478;42.626;23.320;2023-04-01T05:58:58;14.00;;;6.63;;
39788;SDS011;25478;42.626;23.320;2023-04-01T06:01:23;14.70;;;6.80;;
39788;SDS011;25478;42.626;23.320;2023-04-01T06:03:49;12.93;;;6.57;;
39788;SDS011;25478;42.626;23.320;2023-04-01T06:06:15;10.87;;;6.90;;
39788;SDS011;25478;42.626;23.320;2023-04-01T06:08:47;14.50;;;5.87;;
39788;SDS011;25478;42.626;23.320;2023-04-01T06:14:20;10.00;;;5.10;;
39788;SDS011;25478;42.626;23.320;2023-04-01T06:22:35;10.67;;;5.20;;
39788;SDS011;25478;42.626;23.320;2023-04-01T06:45:35;11.60;;;4.47;;
39788;SDS011;25478;42.626;23.320;2023-04-01T06:55:42;9.57;;;4.53;;
39788;SDS011;25478;42.626;23.320;2023-04-01T06:58:21;12.27;;;5.60;;
39788;SDS011;25478;42.626;23.320;2023-04-01T07:00:53;10.83;;;4.40;;
39788;SDS011;25478;42.626;23.320;2023-04-01T07:06:03;9.23;;;3.87;;
39788;SDS011;25478;42.626;23.320;2023-04-01T07:08:35;7.83;;;3.60;;
39788;SDS011;25478;42.626;23.320;2023-04-01T07:11:05;9.33;;;3.57;;
39788;SDS011;25478;42.626;23.320;2023-04-01T07:13:54;9.70;;;3.53;;
39788;SDS011;25478;42.626;23.320;2023-04-01T07:16:25;11.53;;;3.83;;
39788;SDS011;25478;42.626;23.320;2023-04-01T07:19:12;11.30;;;4.83;;
39788;SDS011;25478;42.626;23.320;2023-04-01T07:22:00;13.10;;;5.17;;
39788;SDS011;25478;42.626;23.320;2023-04-01T07:24:49;11.40;;;5.77;;
39788;SDS011;25478;42.626;23.320;2023-04-01T07:27:16;11.43;;;5.80;;
39788;SDS011;25478;42.626;23.320;2023-04-01T07:29:43;10.47;;;5.67;;
39788;SDS011;25478;42.626;23.320;2023-04-01T07:37:33;12.50;;;5.37;;
39788;SDS011;25478;42.626;23.320;2023-04-01T07:40:32;13.53;;;7.13;;
39788;SDS011;25478;42.626;23.320;2023-04-01T07:43:36;9.23;;;4.13;;
39788;SDS011;25478;42.626;23.320;2023-04-01T07:49:10;13.13;;;6.30;;
39788;SDS011;25478;42.626;23.320;2023-04-01T07:57:27;9.97;;;3.30;;
39788;SDS011;25478;42.626;23.320;2023-04-01T08:11:47;9.83;;;2.33;;
39788;SDS011;25478;42.626;23.320;2023-04-01T08:15:06;8.17;;;2.03;;
39788;SDS011;25478;42.626;23.320;2023-04-01T08:33:50;12.10;;;2.75;;
39788;SDS011;25478;42.626;23.320;2023-04-01T08:36:29;8.35;;;2.40;;
39788;SDS011;25478;42.626;23.320;2023-04-01T08:41:59;9.80;;;2.33;;
39788;SDS011;25478;42.626;23.320;2023-04-01T08:48:29;5.97;;;1.65;;
39788;SDS011;25478;42.626;23.320;2023-04-01T08:57:04;6.00;;;2.20;;
39788;SDS011;25478;42.626;23.320;2023-04-01T09:06:24;9.05;;;2.30;;
39788;SDS011;25478;42.626;23.320;2023-04-01T09:09:21;9.70;;;1.95;;
39788;SDS011;25478;42.626;23.320;2023-04-01T09:12:15;8.25;;;2.03;;
39788;SDS011;25478;42.626;23.320;2023-04-01T09:17:50;8.23;;;1.85;;
39788;SDS011;25478;42.626;23.320;2023-04-01T09:20:47;6.50;;;2.13;;
39788;SDS011;25478;42.626;23.320;2023-04-01T09:29:32;6.57;;;2.00;;
39788;SDS011;25478;42.626;23.320;2023-04-01T09:32:25;11.02;;;3.65;;
39788;SDS011;25478;42.626;23.320;2023-04-01T09:35:20;10.60;;;3.53;;
39788;SDS011;25478;42.626;23.320;2023-04-01T09:40:54;8.95;;;3.10;;
39788;SDS011;25478;42.626;23.320;2023-04-01T09:55:19;9.25;;;2.95;;
39788;SDS011;25478;42.626;23.320;2023-04-01T10:00:23;6.75;;;2.67;;
39788;SDS011;25478;42.626;23.320;2023-04-01T10:06:12;7.40;;;2.63;;
39788;SDS011;25478;42.626;23.320;2023-04-01T10:09:01;6.95;;;3.00;;
39788;SDS011;25478;42.626;23.320;2023-04-01T10:17:41;7.93;;;2.17;;
39788;SDS011;25478;42.626;23.320;2023-04-01T11:15:57;4.95;;;1.77;;
39788;SDS011;25478;42.626;23.320;2023-04-01T11:18:47;5.10;;;1.80;;
39788;SDS011;25478;42.626;23.320;2023-04-01T11:22:08;7.78;;;2.03;;
39788;SDS011;25478;42.626;23.320;2023-04-01T11:33:36;7.37;;;1.80;;
39788;SDS011;25478;42.626;23.320;2023-04-01T11:39:09;7.25;;;2.35;;
39788;SDS011;25478;42.626;23.320;2023-04-01T11:42:08;8.10;;;2.38;;
39788;SDS011;25478;42.626;23.320;2023-04-01T11:56:39;10.50;;;3.40;;
39788;SDS011;25478;42.626;23.320;2023-04-01T11:59:32;7.10;;;3.43;;
39788;SDS011;25478;42.626;23.320;2023-04-01T12:02:24;8.20;;;3.90;;
39788;SDS011;25478;42.626;23.320;2023-04-01T12:04:55;8.43;;;3.00;;
39788;SDS011;25478;42.626;23.320;2023-04-01T12:18:33;9.40;;;4.47;;
39788;SDS011;25478;42.626;23.320;2023-04-01T12:29:29;5.83;;;2.83;;
39788;SDS011;25478;42.626;23.320;2023-04-01T12:38:15;6.53;;;2.90;;
39788;SDS011;25478;42.626;23.320;2023-04-01T12:49:28;5.47;;;2.73;;
39788;SDS011;25478;42.626;23.320;2023-04-01T12:52:13;7.73;;;3.00;;
39788;SDS011;25478;42.626;23.320;2023-04-01T12:55:46;4.90;;;2.30;;
39788;SDS011;25478;42.626;23.320;2023-04-01T13:08:48;5.10;;;2.63;;
39788;SDS011;25478;42.626;23.320;2023-04-01T13:19:40;3.47;;;1.23;;
39788;SDS011;25478;42.626;23.320;2023-04-01T13:22:18;1.73;;;0.70;;
39788;SDS011;25478;42.626;23.320;2023-04-01T13:25:27;2.70;;;1.00;;
39788;SDS011;25478;42.626;23.320;2023-04-01T13:28:19;3.07;;;1.30;;
39788;SDS011;25478;42.626;23.320;2023-04-01T13:31:01;2.57;;;1.10;;
39788;SDS011;25478;42.626;23.320;2023-04-01T13:33:38;4.87;;;2.20;;
39788;SDS011;25478;42.626;23.320;2023-04-01T13:38:52;6.50;;;2.50;;
39788;SDS011;25478;42.626;23.320;2023-04-01T13:43:58;5.77;;;2.50;;
39788;SDS011;25478;42.626;23.320;2023-04-01T14:11:31;4.80;;;1.70;;
39788;SDS011;25478;42.626;23.320;2023-04-01T14:14:18;4.03;;;1.93;;
39788;SDS011;25478;42.626;23.320;2023-04-01T14:17:02;3.57;;;1.57;;
39788;SDS011;25478;42.626;23.320;2023-04-01T14:38:38;5.30;;;1.60;;
39788;SDS011;25478;42.626;23.320;2023-04-01T14:49:42;5.27;;;1.73;;
39788;SDS011;25478;42.626;23.320;2023-04-01T14:55:02;4.10;;;1.90;;
39788;SDS011;25478;42.626;23.320;2023-04-01T14:57:57;3.07;;;1.50;;
39788;SDS011;25478;42.626;23.320;2023-04-01T15:03:48;7.00;;;1.83;;
39788;SDS011;25478;42.626;23.320;2023-04-01T15:09:03;6.40;;;3.40;;
39788;SDS011;25478;42.626;23.320;2023-04-01T15:16:53;8.97;;;3.53;;
39788;SDS011;25478;42.626;23.320;2023-04-01T15:32:46;5.80;;;2.23;;
39788;SDS011;25478;42.626;23.320;2023-04-01T15:37:55;6.30;;;2.63;;
39788;SDS011;25478;42.626;23.320;2023-04-01T15:52:05;5.83;;;2.40;;
39788;SDS011;25478;42.626;23.320;2023-04-01T15:57:52;3.73;;;1.30;;
39788;SDS011;25478;42.626;23.320;2023-04-01T16:22:08;4.17;;;2.30;;
39788;SDS011;25478;42.626;23.320;2023-04-01T16:24:48;4.37;;;2.20;;
39788;SDS011;25478;42.626;23.320;2023-04-01T16:27:40;3.30;;;1.93;;
39788;SDS011;25478;42.626;23.320;2023-04-01T16:33:01;4.40;;;2.93;;
39788;SDS011;25478;42.626;23.320;2023-04-01T16:35:40;6.83;;;3.40;;
39788;SDS011;25478;42.626;23.320;2023-04-01T16:56:29;5.73;;;2.77;;
39788;SDS011;25478;42.626;23.320;2023-04-01T16:59:07;5.50;;;2.40;;
39788;SDS011;25478;42.626;23.320;2023-04-01T17:04:25;5.13;;;2.33;;
39788;SDS011;25478;42.626;23.320;2023-04-01T17:13:15;4.70;;;2.70;;
39788;SDS011;25478;42.626;23.320;2023-04-01T17:21:05;4.47;;;2.80;;
39788;SDS011;25478;42.626;23.320;2023-04-01T17:23:36;4.00;;;2.43;;
39788;SDS011;25478;42.626;23.320;2023-04-01T17:37:09;5.17;;;3.13;;
39788;SDS011;25478;42.626;23.320;2023-04-01T17:42:38;6.53;;;3.53;;
39788;SDS011;25478;42.626;23.320;2023-04-01T18:04:10;6.10;;;3.30;;
39788;SDS011;25478;42.626;23.320;2023-04-01T18:07:44;11.83;;;5.10;;
39788;SDS011;25478;42.626;23.320;2023-04-01T18:24:56;3.80;;;2.50;;
39788;SDS011;25478;42.626;23.320;2023-04-01T18:27:15;5.60;;;2.30;;
39788;SDS011;25478;42.626;23.320;2023-04-01T18:29:52;3.93;;;2.63;;
39788;SDS011;25478;42.626;23.320;2023-04-01T18:32:26;3.83;;;2.50;;
39788;SDS011;25478;42.626;23.320;2023-04-01T18:35:09;4.87;;;3.07;;
39788;SDS011;25478;42.626;23.320;2023-04-01T18:37:52;4.33;;;2.53;;
39788;SDS011;25478;42.626;23.320;2023-04-01T18:40:47;6.87;;;3.20;;
39788;SDS011;25478;42.626;23.320;2023-04-01T18:43:34;5.17;;;3.30;;
39788;SDS011;25478;42.626;23.320;2023-04-01T18:46:22;4.35;;;2.83;;
39788;SDS011;25478;42.626;23.320;2023-04-01T18:51:51;5.05;;;3.25;;
39788;SDS011;25478;42.626;23.320;2023-04-01T18:57:16;3.47;;;2.10;;
39788;SDS011;25478;42.626;23.320;2023-04-01T19:02:26;3.83;;;2.10;;
39788;SDS011;25478;42.626;23.320;2023-04-01T19:05:04;3.67;;;2.33;;
39788;SDS011;25478;42.626;23.320;2023-04-01T19:10:07;3.83;;;2.70;;
39788;SDS011;25478;42.626;23.320;2023-04-01T19:15:14;3.87;;;2.20;;
39788;SDS011;25478;42.626;23.320;2023-04-01T19:18:07;4.63;;;2.77;;
39788;SDS011;25478;42.626;23.320;2023-04-01T19:37:39;3.97;;;2.57;;
39788;SDS011;25478;42.626;23.320;2023-04-01T19:40:43;4.03;;;2.53;;
39788;SDS011;25478;42.626;23.320;2023-04-01T19:45:55;4.33;;;2.27;;
39788;SDS011;25478;42.626;23.320;2023-04-01T19:51:29;3.27;;;2.30;;
39788;SDS011;25478;42.626;23.320;2023-04-01T20:04:37;3.73;;;2.23;;
39788;SDS011;25478;42.626;23.320;2023-04-01T20:15:00;7.07;;;3.63;;
39788;SDS011;25478;42.626;23.320;2023-04-01T20:17:33;9.57;;;4.17;;
39788;SDS011;25478;42.626;23.320;2023-04-01T20:25:23;3.20;;;2.20;;
39788;SDS011;25478;42.626;23.320;2023-04-01T20:27:54;3.10;;;2.20;;
39788;SDS011;25478;42.626;23.320;2023-04-01T20:30:47;3.20;;;2.20;;
39788;SDS011;25478;42.626;23.320;2023-04-01T20:45:14;2.73;;;1.90;;
39788;SDS011;25478;42.626;23.320;2023-04-01T20:47:56;4.53;;;2.20;;
39788;SDS011;25478;42.626;23.320;2023-04-01T20:50:31;3.77;;;1.70;;
39788;SDS011;25478;42.626;23.320;2023-04-01T20:53:50;3.13;;;1.60;;
39788;SDS011;25478;42.626;23.320;2023-04-01T21:01:50;2.90;;;1.70;;
39788;SDS011;25478;42.626;23.320;2023-04-01T21:10:05;2.40;;;1.75;;
39788;SDS011;25478;42.626;23.320;2023-04-01T21:14:27;2.93;;;2.10;;
39788;SDS011;25478;42.626;23.320;2023-04-01T21:27:37;2.23;;;1.50;;
39788;SDS011;25478;42.626;23.320;2023-04-01T21:40:54;6.40;;;2.50;;
39788;SDS011;25478;42.626;23.320;2023-04-01T21:49:21;2.10;;;1.48;;
39788;SDS011;25478;42.626;23.320;2023-04-01T21:55:21;2.30;;;1.20;;
39788;SDS011;25478;42.626;23.320;2023-04-01T22:00:25;1.43;;;1.00;;
39788;SDS011;25478;42.626;23.320;2023-04-01T22:03:02;1.97;;;1.20;;
39788;SDS011;25478;42.626;23.320;2023-04-01T22:13:23;1.07;;;0.87;;
39788;SDS011;25478;42.626;23.320;2023-04-01T22:18:32;1.73;;;1.00;;
39788;SDS011;25478;42.626;23.320;2023-04-01T22:21:44;0.67;;;0.67;;
39788;SDS011;25478;42.626;23.320;2023-04-01T22:29:07;1.83;;;1.10;;
39788;SDS011;25478;42.626;23.320;2023-04-01T22:31:58;1.67;;;1.00;;
39788;SDS011;25478;42.626;23.320;2023-04-01T22:40:06;1.63;;;0.85;;
39788;SDS011;25478;42.626;23.320;2023-04-01T22:42:39;2.50;;;1.10;;
39788;SDS011;25478;42.626;23.320;2023-04-01T22:48:35;2.13;;;1.00;;
39788;SDS011;25478;42.626;23.320;2023-04-01T22:56:18;2.90;;;1.27;;
39788;SDS011;25478;42.626;23.320;2023-04-01T22:59:12;2.13;;;1.00;;
39788;SDS011;25478;42.626;23.320;2023-04-01T23:01:43;1.40;;;0.73;;
39788;SDS011;25478;42.626;23.320;2023-04-01T23:04:15;4.03;;;1.07;;
39788;SDS011;25478;42.626;23.320;2023-04-01T23:06:47;1.80;;;1.17;;
39788;SDS011;25478;42.626;23.320;2023-04-01T23:09:22;3.23;;;1.10;;
39788;SDS011;25478;42.626;23.320;2023-04-01T23:11:57;3.57;;;1.20;;
39788;SDS011;25478;42.626;23.320;2023-04-01T23:14:32;2.47;;;1.17;;
39788;SDS011;25478;42.626;23.320;2023-04-01T23:17:19;2.60;;;1.07;;
39788;SDS011;25478;42.626;23.320;2023-04-01T23:38:25;2.57;;;0.90;;
39788;SDS011;25478;42.626;23.320;2023-04-01T23:40:52;1.87;;;0.97;;
39788;SDS011;25478;42.626;23.320;2023-04-01T23:43:33;3.03;;;0.73;;
39788;SDS011;25478;42.626;23.320;2023-04-01T23:46:03;2.30;;;1.00;;
39788;SDS011;25478;42.626;23.320;2023-04-01T23:48:36;2.13;;;0.80;;
39788;SDS011;25478;42.626;23.320;2023-04-01T23:51:09;2.73;;;0.90;;
39788;SDS011;25478;42.626;23.320;2023-04-01T23:53:47;1.80;;;1.00;;
39788;SDS011;25478;42.626;23.320;2023-04-01T23:56:21;1.77;;;1.00;;
39788;SDS011;25478;42.626;23.320;2023-04-01T23:58:50;1.73;;;0.93;;
